createdAt,value
2022-10-14T00:01:05.748Z,5.30
2022-10-14T00:03:34.709Z,4.68
2022-10-14T00:06:13.856Z,5.18
2022-10-14T00:08:41.915Z,5.72
2022-10-14T00:11:16.851Z,4.85
2022-10-14T00:13:44.940Z,5.53
2022-10-14T00:16:20.262Z,3.92
2022-10-14T00:18:48.382Z,4.43
2022-10-14T00:21:16.830Z,3.78
2022-10-14T00:23:45.301Z,6.12
2022-10-14T00:26:25.390Z,4.68
2022-10-14T00:28:53.643Z,6.68
2022-10-14T00:31:22.301Z,5.57
2022-10-14T00:33:49.954Z,3.83
2022-10-14T00:36:22.288Z,5.07
2022-10-14T00:38:50.651Z,4.65
2022-10-14T00:41:30.039Z,4.07
2022-10-14T00:44:04.995Z,4.55
2022-10-14T00:46:38.314Z,3.90
2022-10-14T00:49:10.657Z,5.17
2022-10-14T00:51:39.917Z,5.45
2022-10-14T00:54:08.290Z,4.65
2022-10-14T00:56:36.589Z,4.22
2022-10-14T00:59:06.247Z,4.07
2022-10-14T01:01:34.093Z,4.60
2022-10-14T01:04:01.539Z,3.95
2022-10-14T01:06:38.550Z,4.97
2022-10-14T01:09:27.701Z,4.28
2022-10-14T01:12:29.095Z,4.07
2022-10-14T01:15:06.544Z,4.07
2022-10-14T01:18:02.316Z,5.30
2022-10-14T01:20:37.486Z,4.70
2022-10-14T01:23:43.662Z,4.65
2022-10-14T01:26:29.750Z,4.97
2022-10-14T01:29:16.104Z,3.97
2022-10-14T01:32:22.096Z,6.20
2022-10-14T01:34:55.998Z,7.65
2022-10-14T01:37:26.750Z,5.32
2022-10-14T01:40:05.465Z,3.40
2022-10-14T01:42:35.355Z,1.45
2022-10-14T01:45:22.331Z,6.45
2022-10-14T01:47:51.396Z,5.65
2022-10-14T01:50:20.931Z,4.72
2022-10-14T01:53:04.830Z,5.15
2022-10-14T01:58:07.870Z,6.30
2022-10-14T02:00:35.668Z,3.78
2022-10-14T02:03:03.437Z,5.28
2022-10-14T02:05:33.619Z,4.00
2022-10-14T02:08:18.283Z,4.35
2022-10-14T02:11:02.707Z,3.40
2022-10-14T02:14:04.500Z,4.95
2022-10-14T02:16:38.899Z,5.57
2022-10-14T02:19:24.768Z,5.47
2022-10-14T02:21:58.204Z,3.78
2022-10-14T02:24:44.966Z,4.25
2022-10-14T02:27:15.232Z,4.15
2022-10-14T02:29:44.380Z,5.30
2022-10-14T02:32:14.517Z,4.35
2022-10-14T02:34:47.078Z,5.82
2022-10-14T02:37:15.441Z,3.22
2022-10-14T02:39:47.568Z,5.07
2022-10-14T02:42:15.021Z,4.45
2022-10-14T02:44:56.898Z,4.62
2022-10-14T02:47:24.847Z,4.05
2022-10-14T02:49:53.057Z,4.53
2022-10-14T02:52:20.845Z,4.30
2022-10-14T02:54:48.500Z,3.72
2022-10-14T02:57:16.774Z,2.92
2022-10-14T02:59:44.251Z,3.62
2022-10-14T03:02:11.681Z,3.70
2022-10-14T03:04:39.847Z,3.62
2022-10-14T03:07:07.960Z,5.18
2022-10-14T03:09:35.446Z,5.65
2022-10-14T03:12:04.668Z,3.53
2022-10-14T03:14:32.184Z,3.30
2022-10-14T03:16:59.679Z,5.90
2022-10-14T03:19:29.289Z,6.53
2022-10-14T03:21:57.181Z,4.43
2022-10-14T03:24:26.121Z,3.95
2022-10-14T03:26:57.449Z,4.20
2022-10-14T03:29:25.194Z,4.60
2022-10-14T03:31:53.285Z,5.05
2022-10-14T03:34:21.286Z,3.97
2022-10-14T03:36:50.755Z,3.12
2022-10-14T03:39:18.393Z,4.43
2022-10-14T03:41:47.138Z,4.50
2022-10-14T03:44:15.348Z,4.60
2022-10-14T03:46:43.968Z,5.82
2022-10-14T03:49:12.636Z,3.08
2022-10-14T03:51:40.242Z,4.65
2022-10-14T03:54:07.964Z,3.70
2022-10-14T03:56:36.026Z,4.32
2022-10-14T03:59:03.614Z,3.05
2022-10-14T04:01:32.468Z,3.67
2022-10-14T04:04:00.540Z,4.90
2022-10-14T04:06:28.554Z,4.82
2022-10-14T04:08:56.474Z,4.55
2022-10-14T04:11:24.721Z,3.47
2022-10-14T04:13:58.211Z,3.08
2022-10-14T04:16:27.226Z,4.32
2022-10-14T04:18:55.552Z,3.53
2022-10-14T04:21:23.115Z,4.32
2022-10-14T04:23:51.112Z,3.62
2022-10-14T04:26:22.119Z,5.30
2022-10-14T04:28:50.540Z,4.53
2022-10-14T04:31:22.660Z,4.37
2022-10-14T04:33:51.604Z,5.93
2022-10-14T04:36:19.510Z,3.75
2022-10-14T04:38:47.316Z,4.15
2022-10-14T04:41:14.777Z,5.25
2022-10-14T04:43:44.524Z,6.03
2022-10-14T04:46:13.266Z,5.22
2022-10-14T04:48:40.720Z,3.50
2022-10-14T04:51:08.556Z,4.20
2022-10-14T04:53:37.537Z,3.53
2022-10-14T04:56:06.157Z,4.18
2022-10-14T04:58:37.194Z,4.72
2022-10-14T05:01:05.000Z,3.92
2022-10-14T05:03:32.724Z,5.87
2022-10-14T05:06:00.655Z,3.85
2022-10-14T05:08:28.328Z,3.33
2022-10-14T05:10:56.008Z,6.90
2022-10-14T05:13:27.053Z,6.15
2022-10-14T05:15:55.161Z,4.85
2022-10-14T05:18:22.766Z,4.65
2022-10-14T05:20:50.725Z,4.15
2022-10-14T05:23:18.798Z,5.22
2022-10-14T05:25:46.975Z,6.07
2022-10-14T05:28:14.574Z,5.40
2022-10-14T05:30:42.909Z,4.32
2022-10-14T05:33:11.853Z,5.62
2022-10-14T05:35:58.104Z,3.42
2022-10-14T05:38:27.260Z,4.60
2022-10-14T05:40:56.125Z,3.65
2022-10-14T05:43:32.158Z,6.18
2022-10-14T05:46:00.811Z,3.87
2022-10-14T05:48:28.624Z,4.65
2022-10-14T05:50:56.558Z,4.93
2022-10-14T05:53:25.721Z,5.82
2022-10-14T05:56:01.325Z,5.70
2022-10-14T05:58:29.025Z,4.32
2022-10-14T06:01:01.444Z,4.28
2022-10-14T06:03:29.372Z,5.25
2022-10-14T06:05:57.037Z,6.82
2022-10-14T06:08:24.936Z,2.75
2022-10-14T06:10:52.973Z,3.65
2022-10-14T06:13:21.457Z,4.93
2022-10-14T06:15:49.033Z,5.20
2022-10-14T06:18:17.228Z,4.70
2022-10-14T06:20:44.718Z,5.90
2022-10-14T06:23:12.082Z,3.25
2022-10-14T06:25:40.260Z,4.93
2022-10-14T06:28:07.665Z,7.62
2022-10-14T06:30:35.115Z,7.03
2022-10-14T06:33:02.792Z,5.90
2022-10-14T06:35:30.200Z,6.30
2022-10-14T06:37:57.807Z,5.28
2022-10-14T06:40:25.613Z,6.03
2022-10-14T06:42:53.670Z,7.07
2022-10-14T06:45:21.212Z,6.45
2022-10-14T06:47:48.930Z,5.22
2022-10-14T06:50:16.332Z,6.15
2022-10-14T06:52:47.425Z,7.93
2022-10-14T06:55:15.852Z,6.95
2022-10-14T06:57:43.806Z,6.70
2022-10-14T07:00:11.786Z,8.63
2022-10-14T07:02:39.581Z,8.75
2022-10-14T07:05:07.257Z,7.78
2022-10-14T07:07:34.680Z,6.55
2022-10-14T07:10:02.372Z,9.68
2022-10-14T07:12:30.071Z,7.97
2022-10-14T07:14:57.515Z,6.95
2022-10-14T07:17:25.401Z,7.03
2022-10-14T07:19:52.894Z,7.85
2022-10-14T07:22:20.552Z,8.30
2022-10-14T07:24:48.612Z,9.15
2022-10-14T07:27:20.778Z,9.80
2022-10-14T07:29:48.833Z,8.00
2022-10-14T07:32:16.239Z,7.90
2022-10-14T07:34:43.751Z,9.05
2022-10-14T07:37:11.513Z,7.97
2022-10-14T07:39:38.933Z,10.05
2022-10-14T07:42:06.716Z,6.90
2022-10-14T07:44:34.380Z,7.18
2022-10-14T07:47:03.201Z,8.77
2022-10-14T07:49:30.670Z,8.02
2022-10-14T07:51:58.441Z,7.75
2022-10-14T07:54:26.852Z,8.23
2022-10-14T07:56:54.266Z,7.80
2022-10-14T07:59:22.073Z,7.62
2022-10-14T08:01:50.912Z,8.00
2022-10-14T08:04:19.136Z,7.05
2022-10-14T08:06:50.164Z,5.82
2022-10-14T08:09:19.149Z,8.15
2022-10-14T08:11:47.375Z,6.75
2022-10-14T08:14:15.104Z,5.65
2022-10-14T08:16:42.583Z,7.05
2022-10-14T08:19:14.577Z,8.80
2022-10-14T08:21:43.364Z,8.57
2022-10-14T08:24:11.313Z,7.68
2022-10-14T08:27:01.089Z,8.20
2022-10-14T08:29:28.801Z,11.12
2022-10-14T08:31:56.290Z,9.43
2022-10-14T08:34:24.484Z,10.20
2022-10-14T08:36:52.333Z,6.68
2022-10-14T08:39:20.795Z,8.00
2022-10-14T08:42:00.325Z,9.60
2022-10-14T08:44:35.954Z,7.18
2022-10-14T08:47:05.025Z,7.18
2022-10-14T08:49:38.021Z,5.90
2022-10-14T08:52:14.472Z,6.85
2022-10-14T08:54:45.259Z,7.00
2022-10-14T08:57:15.961Z,8.68
2022-10-14T08:59:44.133Z,8.75
2022-10-14T09:02:20.030Z,8.07
2022-10-14T09:04:47.905Z,9.32
2022-10-14T09:07:20.057Z,9.75
2022-10-14T09:09:51.226Z,9.88
2022-10-14T09:12:25.024Z,9.77
2022-10-14T09:15:09.150Z,11.57
2022-10-14T09:17:41.848Z,11.68
2022-10-14T09:20:18.603Z,10.35
2022-10-14T09:22:57.261Z,10.95
2022-10-14T09:25:25.020Z,12.40
2022-10-14T09:27:52.544Z,12.02
2022-10-14T09:30:20.312Z,14.40
2022-10-14T09:32:55.284Z,11.70
2022-10-14T09:35:40.593Z,8.52
2022-10-14T09:38:08.393Z,11.68
2022-10-14T09:40:39.380Z,11.07
2022-10-14T09:43:09.512Z,11.93
2022-10-14T09:45:56.017Z,12.30
2022-10-14T09:48:29.314Z,13.10
2022-10-14T09:50:58.111Z,13.50
2022-10-14T09:53:31.497Z,8.93
2022-10-14T09:56:01.613Z,9.88
2022-10-14T09:58:53.771Z,9.98
2022-10-14T10:01:26.767Z,14.73
2022-10-14T10:03:55.705Z,12.52
2022-10-14T10:06:27.869Z,9.07
2022-10-14T10:08:55.765Z,11.48
2022-10-14T10:11:28.318Z,12.48
2022-10-14T10:13:56.400Z,9.27
2022-10-14T10:16:32.891Z,11.30
2022-10-14T10:19:23.748Z,11.45
2022-10-14T10:21:51.206Z,15.93
2022-10-14T10:24:25.950Z,12.13
2022-10-14T10:26:56.255Z,9.60
2022-10-14T10:29:34.513Z,10.88
2022-10-14T10:32:42.631Z,13.40
2022-10-14T10:35:29.840Z,12.77
2022-10-14T10:38:00.641Z,8.88
2022-10-14T10:40:37.114Z,10.73
2022-10-14T10:43:33.370Z,10.20
2022-10-14T10:46:14.774Z,9.57
2022-10-14T10:48:45.026Z,11.00
2022-10-14T10:51:36.257Z,11.12
2022-10-14T10:54:25.366Z,8.25
2022-10-14T10:56:56.146Z,12.05
2022-10-14T10:59:26.661Z,12.68
2022-10-14T11:02:03.863Z,14.13
2022-10-14T11:04:46.572Z,12.82
2022-10-14T11:07:47.063Z,9.82
2022-10-14T11:10:43.081Z,11.95
2022-10-14T11:13:41.713Z,15.25
2022-10-14T11:16:18.176Z,11.73
2022-10-14T11:18:50.930Z,10.68
2022-10-14T11:21:22.062Z,13.20
2022-10-14T11:24:13.885Z,13.93
2022-10-14T11:26:57.767Z,10.95
2022-10-14T11:29:54.342Z,15.73
2022-10-14T11:32:43.301Z,10.55
2022-10-14T11:35:18.993Z,14.48
2022-10-14T11:37:53.595Z,11.00
2022-10-14T11:40:39.847Z,11.70
2022-10-14T11:43:22.454Z,15.23
2022-10-14T11:45:59.875Z,16.52
2022-10-14T11:48:33.108Z,10.95
2022-10-14T11:51:11.703Z,15.40
2022-10-14T11:53:58.964Z,8.90
2022-10-14T11:56:58.958Z,11.32
2022-10-14T12:00:17.428Z,16.90
2022-10-14T12:02:54.789Z,13.43
2022-10-14T12:05:47.192Z,18.20
2022-10-14T12:08:17.637Z,12.13
2022-10-14T12:10:48.186Z,12.15
2022-10-14T12:13:19.197Z,12.82
2022-10-14T12:15:50.828Z,10.35
2022-10-14T12:18:22.840Z,15.57
2022-10-14T12:21:14.300Z,17.83
2022-10-14T12:23:57.344Z,12.90
2022-10-14T12:26:24.661Z,15.43
2022-10-14T12:28:54.086Z,13.98
2022-10-14T12:31:23.826Z,12.07
2022-10-14T12:34:17.497Z,15.63
2022-10-14T12:36:47.054Z,12.85
2022-10-14T12:39:17.558Z,19.70
2022-10-14T12:41:54.236Z,14.87
2022-10-14T12:44:23.733Z,14.07
2022-10-14T12:46:53.506Z,13.65
2022-10-14T12:49:30.689Z,18.35
2022-10-14T12:52:04.810Z,14.48
2022-10-14T12:54:33.400Z,12.48
2022-10-14T12:57:03.210Z,14.38
2022-10-14T12:59:36.483Z,15.85
2022-10-14T13:02:17.677Z,19.87
2022-10-14T13:04:53.549Z,15.27
2022-10-14T13:07:47.141Z,19.48
2022-10-14T13:10:45.886Z,14.13
2022-10-14T13:13:39.020Z,15.90
2022-10-14T13:16:10.535Z,14.70
2022-10-14T13:18:44.488Z,13.98
2022-10-14T13:21:36.485Z,15.80
2022-10-14T13:24:26.325Z,19.45
2022-10-14T13:26:53.960Z,13.82
2022-10-14T13:29:48.909Z,13.10
2022-10-14T13:32:43.143Z,15.90
2022-10-14T13:35:29.464Z,13.23
2022-10-14T13:38:00.459Z,16.12
2022-10-14T13:40:40.212Z,21.70
2022-10-14T13:43:15.378Z,13.45
2022-10-14T13:45:47.132Z,20.17
2022-10-14T13:48:30.171Z,15.45
2022-10-14T13:51:31.475Z,16.33
2022-10-14T13:54:30.945Z,13.38
2022-10-14T13:57:42.617Z,22.75
2022-10-14T14:02:51.453Z,13.62
2022-10-14T14:05:25.978Z,12.65
2022-10-14T14:11:14.534Z,15.82
2022-10-14T14:13:53.243Z,13.62
2022-10-14T14:16:26.526Z,13.97
2022-10-14T14:19:07.447Z,11.40
2022-10-14T14:21:36.363Z,17.87
2022-10-14T14:24:10.961Z,10.73
2022-10-14T14:26:38.933Z,13.43
2022-10-14T14:29:14.429Z,16.65
2022-10-14T14:34:32.519Z,13.98
2022-10-14T14:37:11.004Z,14.75
2022-10-14T14:40:18.097Z,12.43
2022-10-14T14:42:47.335Z,16.83
2022-10-14T14:45:20.473Z,22.85
2022-10-14T14:47:52.206Z,19.35
2022-10-14T14:50:30.868Z,19.62
2022-10-14T14:53:03.456Z,19.40
2022-10-14T14:55:46.378Z,15.35
2022-10-14T14:58:21.987Z,22.62
2022-10-14T15:00:51.654Z,17.12
2022-10-14T15:03:19.161Z,14.82
2022-10-14T15:06:01.895Z,13.15
2022-10-14T15:08:32.785Z,18.25
2022-10-14T15:11:00.786Z,20.20
2022-10-14T15:13:39.141Z,14.27
2022-10-14T15:16:07.611Z,11.88
2022-10-14T15:18:37.653Z,14.20
2022-10-14T15:21:06.904Z,13.60
2022-10-14T15:23:49.637Z,17.02
2022-10-14T15:26:33.482Z,16.08
2022-10-14T15:29:05.276Z,20.45
2022-10-14T15:31:33.050Z,19.65
2022-10-14T15:34:01.441Z,20.98
2022-10-14T15:36:31.292Z,15.38
2022-10-14T15:39:00.710Z,16.02
2022-10-14T15:41:29.587Z,14.98
2022-10-14T15:43:57.047Z,14.07
2022-10-14T15:46:43.399Z,15.75
2022-10-14T15:49:18.349Z,20.55
2022-10-14T15:51:45.815Z,19.95
2022-10-14T15:54:14.538Z,23.27
2022-10-14T15:56:41.982Z,20.15
2022-10-14T15:59:10.064Z,19.87
2022-10-14T16:01:39.744Z,18.87
2022-10-14T16:04:14.863Z,18.92
2022-10-14T16:06:42.328Z,22.45
2022-10-14T16:09:10.122Z,21.55
2022-10-14T16:11:37.662Z,17.62
2022-10-14T16:14:06.581Z,16.55
2022-10-14T16:16:37.705Z,20.33
2022-10-14T16:19:05.194Z,17.23
2022-10-14T16:21:33.511Z,17.30
2022-10-14T16:24:02.318Z,14.55
2022-10-14T16:26:30.848Z,19.45
2022-10-14T16:29:00.277Z,13.30
2022-10-14T16:31:28.059Z,12.75
2022-10-14T16:33:55.513Z,18.45
2022-10-14T16:36:24.954Z,10.85
2022-10-14T16:38:52.791Z,12.90
2022-10-14T16:41:20.442Z,13.80
2022-10-14T16:43:48.045Z,12.48
2022-10-14T16:46:16.732Z,14.07
2022-10-14T16:48:45.915Z,12.35
2022-10-14T16:51:13.796Z,14.60
2022-10-14T16:53:41.693Z,12.70
2022-10-14T16:56:36.664Z,13.85
2022-10-14T16:59:04.997Z,12.23
2022-10-14T17:01:32.951Z,12.43
2022-10-14T17:04:01.523Z,11.27
2022-10-14T17:06:29.300Z,11.90
2022-10-14T17:08:56.826Z,15.95
2022-10-14T17:11:27.365Z,9.85
2022-10-14T17:13:57.122Z,10.55
2022-10-14T17:16:28.454Z,11.43
2022-10-14T17:18:56.923Z,11.25
2022-10-14T17:21:28.073Z,12.00
2022-10-14T17:23:58.927Z,12.55
2022-10-14T17:26:26.578Z,12.35
2022-10-14T17:28:54.138Z,10.60
2022-10-14T17:31:22.844Z,10.15
2022-10-14T17:33:50.899Z,11.88
2022-10-14T17:36:23.835Z,11.38
2022-10-14T17:38:52.357Z,12.27
2022-10-14T17:41:19.995Z,8.90
2022-10-14T17:43:49.575Z,12.68
2022-10-14T17:46:20.821Z,11.80
2022-10-14T17:48:50.644Z,9.40
2022-10-14T17:51:20.344Z,12.32
2022-10-14T17:53:48.293Z,12.13
2022-10-14T17:56:15.750Z,11.52
2022-10-14T17:58:43.490Z,13.13
2022-10-14T18:01:15.892Z,12.05
2022-10-14T18:03:44.644Z,13.05
2022-10-14T18:06:13.523Z,11.18
2022-10-14T18:08:42.242Z,15.00
2022-10-14T18:11:11.310Z,11.85
2022-10-14T18:16:12.118Z,8.80
2022-10-14T18:18:43.315Z,11.07
2022-10-14T18:21:10.948Z,13.70
2022-10-14T18:23:39.848Z,15.45
2022-10-14T18:26:13.291Z,14.48
2022-10-14T18:28:46.751Z,18.17
2022-10-14T18:31:17.148Z,14.52
2022-10-14T18:33:45.010Z,10.43
2022-10-14T18:36:14.399Z,9.80
2022-10-14T18:38:42.880Z,9.05
2022-10-14T18:41:12.817Z,10.85
2022-10-14T18:43:41.161Z,8.82
2022-10-14T18:46:14.540Z,11.82
2022-10-14T18:48:44.229Z,11.95
2022-10-14T18:51:15.212Z,9.52
2022-10-14T18:53:45.095Z,10.43
2022-10-14T18:56:15.742Z,11.23
2022-10-14T18:58:54.090Z,13.27
2022-10-14T19:01:22.953Z,10.40
2022-10-14T19:03:53.516Z,11.82
2022-10-14T19:06:21.656Z,9.70
2022-10-14T19:08:50.003Z,10.60
2022-10-14T19:11:24.800Z,11.55
2022-10-14T19:13:54.369Z,9.15
2022-10-14T19:16:24.233Z,10.27
2022-10-14T19:18:56.538Z,8.85
2022-10-14T19:21:29.625Z,10.20
2022-10-14T19:23:58.613Z,11.32
2022-10-14T19:26:28.553Z,10.77
2022-10-14T19:28:56.786Z,12.77
2022-10-14T19:31:26.438Z,10.32
2022-10-14T19:33:54.772Z,9.75
2022-10-14T19:36:23.937Z,8.77
2022-10-14T19:38:59.548Z,11.00
2022-10-14T19:41:32.149Z,9.82
2022-10-14T19:44:00.783Z,10.63
2022-10-14T19:46:29.568Z,10.15
2022-10-14T19:48:59.135Z,10.95
2022-10-14T19:51:27.242Z,11.63
2022-10-14T19:53:55.243Z,10.75
2022-10-14T19:56:23.145Z,16.85
2022-10-14T19:58:53.030Z,15.68
2022-10-14T20:01:23.666Z,13.52
2022-10-14T20:03:52.592Z,16.02
2022-10-14T20:06:21.225Z,13.10
2022-10-14T20:08:48.969Z,11.45
2022-10-14T20:11:19.142Z,18.05
2022-10-14T20:13:47.223Z,12.95
2022-10-14T20:16:14.731Z,15.90
2022-10-14T20:18:42.684Z,15.20
2022-10-14T20:21:14.078Z,13.85
2022-10-14T20:23:42.129Z,12.98
2022-10-14T20:26:16.147Z,11.40
2022-10-14T20:28:44.328Z,9.68
2022-10-14T20:31:16.858Z,11.50
2022-10-14T20:33:44.954Z,12.60
2022-10-14T20:36:14.398Z,15.50
2022-10-14T20:38:42.746Z,11.02
2022-10-14T20:41:22.853Z,12.57
2022-10-14T20:43:50.942Z,15.10
2022-10-14T20:46:19.219Z,11.50
2022-10-14T20:48:46.739Z,12.98
2022-10-14T20:51:16.466Z,13.27
2022-10-14T20:53:44.233Z,9.70
2022-10-14T20:56:12.837Z,11.55
2022-10-14T20:58:40.606Z,10.80
2022-10-14T21:01:11.395Z,9.25
2022-10-14T21:03:39.472Z,12.63
2022-10-14T21:06:10.775Z,7.65
2022-10-14T21:08:38.769Z,11.77
2022-10-14T21:11:13.727Z,9.40
2022-10-14T21:13:45.208Z,13.10
2022-10-14T21:16:33.057Z,9.32
2022-10-14T21:19:06.561Z,11.60
2022-10-14T21:21:37.220Z,10.15
2022-10-14T21:24:05.563Z,9.48
2022-10-14T21:26:33.583Z,9.50
2022-10-14T21:29:02.631Z,9.75
2022-10-14T21:31:31.073Z,8.18
2022-10-14T21:34:05.510Z,7.65
2022-10-14T21:36:38.562Z,9.50
2022-10-14T21:39:11.841Z,9.27
2022-10-14T21:41:40.345Z,11.80
2022-10-14T21:44:08.938Z,10.77
2022-10-14T21:46:36.482Z,10.68
2022-10-14T21:49:04.460Z,9.88
2022-10-14T21:51:32.865Z,12.90
2022-10-14T21:54:00.317Z,13.15
2022-10-14T21:56:28.576Z,10.10
2022-10-14T21:58:56.192Z,11.85
2022-10-14T22:01:27.251Z,10.07
2022-10-14T22:04:03.818Z,12.32
2022-10-14T22:06:33.464Z,9.40
2022-10-14T22:09:02.529Z,9.23
2022-10-14T22:11:33.961Z,8.82
2022-10-14T22:14:03.567Z,7.95
2022-10-14T22:16:31.045Z,9.02
2022-10-14T22:19:00.321Z,9.45
2022-10-14T22:21:29.844Z,6.55
2022-10-14T22:23:58.428Z,6.75
2022-10-14T22:26:27.264Z,10.05
2022-10-14T22:29:00.191Z,6.93
2022-10-14T22:31:28.859Z,8.45
2022-10-14T22:33:56.645Z,8.23
2022-10-14T22:36:25.779Z,9.00
2022-10-14T22:38:54.273Z,9.88
2022-10-14T22:41:23.125Z,8.30
2022-10-14T22:43:52.680Z,8.57
2022-10-14T22:46:22.393Z,10.63
2022-10-14T22:48:50.822Z,9.30
2022-10-14T22:51:20.043Z,8.88
2022-10-14T22:53:47.546Z,8.80
2022-10-14T22:56:18.342Z,9.68
2022-10-14T22:58:45.836Z,9.52
2022-10-14T23:01:16.988Z,8.98
2022-10-14T23:03:44.707Z,7.93
2022-10-14T23:06:13.505Z,9.63
2022-10-14T23:08:41.208Z,10.35
2022-10-14T23:11:14.742Z,9.07
2022-10-14T23:13:42.154Z,8.55
2022-10-14T23:16:15.444Z,8.88
2022-10-14T23:18:43.384Z,9.10
2022-10-14T23:21:20.642Z,9.85
2022-10-14T23:23:49.068Z,7.05
2022-10-14T23:26:21.364Z,6.70
2022-10-14T23:28:50.423Z,7.22
2022-10-14T23:31:20.804Z,10.70
2022-10-14T23:33:49.213Z,9.23
2022-10-14T23:36:16.704Z,9.57
2022-10-14T23:38:44.774Z,10.32
2022-10-14T23:41:13.078Z,6.93
2022-10-14T23:43:41.357Z,7.68
2022-10-14T23:46:09.422Z,7.72
2022-10-14T23:48:37.088Z,9.02
2022-10-14T23:51:04.841Z,7.97
2022-10-14T23:53:33.316Z,8.40
2022-10-14T23:56:01.047Z,8.35
2022-10-14T23:58:29.739Z,6.05
